| time (UTC) | temp C | wind direction | speed KPH | gust KPH | rain 1hr cm | rain 24hr cm | rain mn cm | humidity % | barometer mb |
| 20260503071622 | 9 | 46 | 0.0 | 3.2 | 0.00 | 0.00 | 0.00 | 73 | 1014.1 |
| 20260503071122 | 9 | 46 | 0.0 | 0.0 | 0.00 | 0.00 | 0.00 | 73 | 1014.1 |
| 20260503070622 | 10 | 46 | 0.0 | 0.0 | 0.00 | 0.00 | 0.00 | 73 | 1014.0 |
| 20260503070122 | 10 | 46 | 0.0 | 0.0 | 0.00 | 0.00 | 0.00 | 73 | 1014.0 |
| 20260503060122 | 11 | 46 | 0.0 | 0.0 | 0.00 | 0.00 | 0.00 | 69 | 1013.5 |
| 20260503055122 | 11 | 46 | 0.0 | 1.6 | 0.00 | 0.00 | 0.00 | 70 | 1013.5 |
| 20260503054622 | 11 | 46 | 0.0 | 1.6 | 0.00 | 0.00 | 0.00 | 70 | 1013.4 |
| 20260503054122 | 11 | 46 | 1.6 | 3.2 | 0.00 | 0.00 | 0.00 | 69 | 1013.4 |
| 20260503053622 | 11 | 46 | 0.0 | 0.0 | 0.00 | 0.00 | 0.00 | 69 | 1013.3 |
| 20260503053122 | 12 | 46 | 0.0 | 0.0 | 0.00 | 0.00 | 0.00 | 69 | 1013.3 |
| 20260503052622 | 12 | 46 | 0.0 | 3.2 | 0.00 | 0.00 | 0.00 | 68 | 1013.3 |
| 20260503052122 | 12 | 46 | 0.0 | 1.6 | 0.00 | 0.00 | 0.00 | 67 | 1013.2 |
| 20260503051622 | 12 | 46 | 0.0 | 1.6 | 0.00 | 0.00 | 0.00 | 66 | 1013.2 |
| 20260503051122 | 12 | 46 | 0.0 | 1.6 | 0.00 | 0.00 | 0.00 | 67 | 1013.1 |
| 20260503050622 | 13 | 46 | 0.0 | 1.6 | 0.00 | 0.00 | 0.00 | 67 | 1013.0 |
| 20260503050122 | 13 | 46 | 0.0 | 1.6 | 0.00 | 0.00 | 0.00 | 65 | 1013.0 |
| 20260503045622 | 13 | 46 | 0.0 | 3.2 | 0.00 | 0.00 | 0.00 | 63 | 1012.9 |
| 20260503045123 | 13 | 46 | 0.0 | 3.2 | 0.00 | 0.00 | 0.00 | 63 | 1012.9 |
| 20260503044622 | 13 | 46 | 0.0 | 0.0 | 0.00 | 0.00 | 0.00 | 63 | 1012.9 |
| 20260503044122 | 13 | 46 | 0.0 | 0.0 | 0.00 | 0.00 | 0.00 | 63 | 1012.9 |
| 20260503043622 | 14 | 46 | 0.0 | 1.6 | 0.00 | 0.00 | 0.00 | 60 | 1012.9 |
| 20260503043122 | 14 | 46 | 0.0 | 1.6 | 0.00 | 0.00 | 0.00 | 62 | 1012.9 |
| 20260503042622 | 14 | 46 | 0.0 | 0.0 | 0.00 | 0.00 | 0.00 | 61 | 1012.9 |
| 20260503042122 | 15 | 46 | 0.0 | 0.0 | 0.00 | 0.00 | 0.00 | 61 | 1012.9 |
| 20260503041622 | 15 | 46 | 0.0 | 0.0 | 0.00 | 0.00 | 0.00 | 61 | 1012.9 |
| 20260503041122 | 15 | 46 | 0.0 | 0.0 | 0.00 | 0.00 | 0.00 | 60 | 1012.9 |
| 20260503040622 | 15 | 46 | 0.0 | 0.0 | 0.00 | 0.00 | 0.00 | 57 | 1012.8 |
| 20260503040122 | 15 | 46 | 0.0 | 0.0 | 0.00 | 0.00 | 0.00 | 58 | 1012.8 |
| 20260503035622 | 15 | 46 | 0.0 | 0.0 | 0.00 | 0.00 | 0.00 | 59 | 1012.8 |
| 20260503035122 | 15 | 46 | 0.0 | 0.0 | 0.00 | 0.00 | 0.00 | 58 | 1012.7 |
| 20260503034622 | 16 | 46 | 0.0 | 0.0 | 0.00 | 0.00 | 0.00 | 58 | 1012.6 |
| 20260503034122 | 16 | 46 | 0.0 | 0.0 | 0.00 | 0.00 | 0.00 | 57 | 1012.6 |
| 20260503033622 | 16 | 46 | 0.0 | 0.0 | 0.00 | 0.00 | 0.00 | 55 | 1012.6 |
| 20260503033122 | 16 | 46 | 0.0 | 0.0 | 0.00 | 0.00 | 0.00 | 55 | 1012.6 |
| 20260503032622 | 17 | 46 | 0.0 | 0.0 | 0.00 | 0.00 | 0.00 | 55 | 1012.5 |
| 20260503032122 | 17 | 46 | 0.0 | 0.0 | 0.00 | 0.00 | 0.00 | 50 | 1012.3 |
| 20260503031622 | 17 | 46 | 0.0 | 0.0 | 0.00 | 0.00 | 0.00 | 50 | 1012.3 |
| 20260503031122 | 18 | 46 | 0.0 | 0.0 | 0.00 | 0.00 | 0.00 | 50 | 1012.2 |
| 20260503030622 | 18 | 46 | 0.0 | 0.0 | 0.00 | 0.00 | 0.00 | 48 | 1012.3 |
| 20260503030122 | 19 | 46 | 0.0 | 0.0 | 0.00 | 0.00 | 0.00 | 50 | 1012.2 |
| 20260503025622 | 20 | 46 | 0.0 | 0.0 | 0.00 | 0.00 | 0.00 | 50 | 1012.3 |
| 20260503025122 | 20 | 46 | 0.0 | 0.0 | 0.00 | 0.00 | 0.00 | 43 | 1012.3 |
| 20260503024622 | 20 | 46 | 0.0 | 0.0 | 0.00 | 0.00 | 0.00 | 45 | 1012.2 |
| 20260503024122 | 21 | 46 | 0.0 | 0.0 | 0.00 | 0.00 | 0.00 | 43 | 1012.2 |
| 20260503023622 | 21 | 46 | 0.0 | 0.0 | 0.00 | 0.00 | 0.00 | 43 | 1012.1 |
| 20260503023122 | 21 | 46 | 0.0 | 0.0 | 0.00 | 0.00 | 0.00 | 41 | 1012.1 |
| 20260503022622 | 21 | 46 | 0.0 | 0.0 | 0.00 | 0.00 | 0.00 | 42 | 1012.1 |
| 20260503022122 | 21 | 46 | 0.0 | 0.0 | 0.00 | 0.00 | 0.00 | 41 | 1012.0 |
| 20260503021622 | 21 | 46 | 0.0 | 0.0 | 0.00 | 0.00 | 0.00 | 40 | 1012.0 |
| 20260503021122 | 22 | 46 | 0.0 | 0.0 | 0.00 | 0.00 | 0.00 | 39 | 1012.0 |
| 20260503020622 | 22 | 46 | 0.0 | 0.0 | 0.00 | 0.00 | 0.00 | 39 | 1012.0 |
| 20260503020122 | 22 | 46 | 0.0 | 0.0 | 0.00 | 0.00 | 0.00 | 39 | 1012.0 |
| 20260503015622 | 22 | 46 | 0.0 | 0.0 | 0.00 | 0.00 | 0.00 | 39 | 1012.1 |
| 20260503015122 | 22 | 46 | 0.0 | 0.0 | 0.00 | 0.00 | 0.00 | 38 | 1012.0 |
| 20260503014623 | 22 | 46 | 0.0 | 0.0 | 0.00 | 0.00 | 0.00 | 37 | 1012.0 |
| 20260503014122 | 22 | 46 | 0.0 | 0.0 | 0.00 | 0.00 | 0.00 | 36 | 1012.0 |
| 20260503013622 | 22 | 46 | 0.0 | 0.0 | 0.00 | 0.00 | 0.00 | 36 | 1012.0 |
| 20260503013122 | 23 | 46 | 0.0 | 1.6 | 0.00 | 0.00 | 0.00 | 37 | 1012.1 |
| 20260503012622 | 23 | 46 | 0.0 | 0.0 | 0.00 | 0.00 | 0.00 | 35 | 1012.0 |
| 20260503012122 | 23 | 46 | 0.0 | 0.0 | 0.00 | 0.00 | 0.00 | 40 | 1011.9 |
| 20260503011622 | 23 | 46 | 0.0 | 0.0 | 0.00 | 0.00 | 0.00 | 39 | 1012.0 |
| 20260503011122 | 23 | 46 | 0.0 | 0.0 | 0.00 | 0.00 | 0.00 | 38 | 1012.1 |
| 20260503010622 | 23 | 46 | 0.0 | 0.0 | 0.00 | 0.00 | 0.00 | 39 | 1012.1 |
| 20260503010123 | 23 | 45 | 1.6 | 6.4 | 0.00 | 0.00 | 0.00 | 33 | 1012.1 |
| 20260503005622 | 23 | 45 | 3.2 | 6.4 | 0.00 | 0.00 | 0.00 | 36 | 1012.3 |
| 20260503005122 | 23 | 45 | 1.6 | 6.4 | 0.00 | 0.00 | 0.00 | 35 | 1012.4 |
| 20260503004622 | 23 | 46 | 1.6 | 4.8 | 0.00 | 0.00 | 0.00 | 35 | 1012.4 |
| 20260503004127 | 23 | 47 | 1.6 | 4.8 | 0.00 | 0.00 | 0.00 | 34 | 1012.4 |
| 20260503004122 | 23 | 47 | 1.6 | 4.8 | 0.00 | 0.00 | 0.00 | 37 | 1012.4 |
| 20260503003622 | 22 | 48 | 1.6 | 4.8 | 0.00 | 0.00 | 0.00 | 39 | 1012.4 |
| 20260503003122 | 22 | 48 | 1.6 | 4.8 | 0.00 | 0.00 | 0.00 | 39 | 1012.4 |
| 20260503002622 | 22 | 48 | 1.6 | 6.4 | 0.00 | 0.00 | 0.00 | 39 | 1012.4 |
| 20260503002122 | 22 | 48 | 1.6 | 6.4 | 0.00 | 0.00 | 0.00 | 38 | 1012.4 |
| 20260503001622 | 22 | 45 | 4.8 | 14.5 | 0.00 | 0.00 | 0.00 | 36 | 1012.5 |
| 20260503001122 | 22 | 29 | 4.8 | 11.3 | 0.00 | 0.00 | 0.00 | 36 | 1012.3 |
| 20260503000622 | 22 | 23 | 1.6 | 6.4 | 0.00 | 0.00 | 0.00 | 39 | 1012.4 |
| 20260503000122 | 22 | 21 | 1.6 | 6.4 | 0.00 | 0.00 | 0.00 | 38 | 1012.4 |
| 20260502235623 | 23 | 18 | 4.8 | 11.3 | 0.00 | 0.00 | 0.00 | 38 | 1012.3 |
| 20260502235122 | 23 | 11 | 3.2 | 6.4 | 0.00 | 0.00 | 0.00 | 40 | 1012.4 |
| 20260502234623 | 23 | 11 | 1.6 | 6.4 | 0.00 | 0.00 | 0.00 | 39 | 1012.4 |
| 20260502234122 | 23 | 11 | 3.2 | 8.0 | 0.00 | 0.00 | 0.00 | 37 | 1012.4 |
| 20260502233622 | 24 | 8 | 3.2 | 8.0 | 0.00 | 0.00 | 0.00 | 38 | 1012.5 |
| 20260502233122 | 24 | 6 | 1.6 | 4.8 | 0.00 | 0.00 | 0.00 | 36 | 1012.6 |
| 20260502232622 | 24 | 6 | 1.6 | 4.8 | 0.00 | 0.00 | 0.00 | 35 | 1012.7 |
| 20260502232122 | 24 | 1 | 1.6 | 8.0 | 0.00 | 0.00 | 0.00 | 34 | 1012.6 |
| 20260502231622 | 24 | 354 | 1.6 | 6.4 | 0.00 | 0.00 | 0.00 | 33 | 1012.7 |
| 20260502231122 | 24 | 348 | 3.2 | 8.0 | 0.00 | 0.00 | 0.00 | 36 | 1012.7 |
| 20260502230623 | 24 | 359 | 1.6 | 11.3 | 0.00 | 0.00 | 0.00 | 34 | 1012.7 |
| 20260502230122 | 23 | 26 | 4.8 | 16.1 | 0.00 | 0.00 | 0.00 | 38 | 1012.9 |
| 20260502225622 | 23 | 19 | 1.6 | 6.4 | 0.00 | 0.00 | 0.00 | 40 | 1012.9 |
| 20260502225122 | 23 | 19 | 1.6 | 9.7 | 0.00 | 0.00 | 0.00 | 39 | 1013.0 |
| 20260502224622 | 24 | 16 | 3.2 | 9.7 | 0.00 | 0.00 | 0.00 | 37 | 1013.0 |
| 20260502224122 | 24 | 19 | 3.2 | 8.0 | 0.00 | 0.00 | 0.00 | 38 | 1013.0 |
| 20260502223622 | 23 | 46 | 3.2 | 11.3 | 0.00 | 0.00 | 0.00 | 46 | 1013.1 |
| 20260502223122 | 23 | 32 | 3.2 | 9.7 | 0.00 | 0.00 | 0.00 | 38 | 1013.1 |
| 20260502222622 | 23 | 36 | 3.2 | 11.3 | 0.00 | 0.00 | 0.00 | 39 | 1013.3 |
| 20260502222122 | 23 | 36 | 4.8 | 12.9 | 0.00 | 0.00 | 0.00 | 40 | 1013.3 |
| 20260502221622 | 23 | 49 | 6.4 | 14.5 | 0.00 | 0.00 | 0.00 | 45 | 1013.5 |
| 20260502221122 | 23 | 52 | 4.8 | 11.3 | 0.00 | 0.00 | 0.00 | 43 | 1013.5 |
| 20260502220623 | 23 | 52 | 4.8 | 11.3 | 0.00 | 0.00 | 0.00 | 39 | 1013.5 |
| 20260502220122 | 23 | 53 | 1.6 | 6.4 | 0.00 | 0.00 | 0.00 | 41 | 1013.6 |
| 20260502215622 | 23 | 55 | 4.8 | 12.9 | 0.00 | 0.00 | 0.00 | 44 | 1013.7 |
| 20260502215122 | 23 | 51 | 4.8 | 12.9 | 0.00 | 0.00 | 0.00 | 44 | 1013.7 |
| 20260502214622 | 23 | 52 | 3.2 | 12.9 | 0.00 | 0.00 | 0.00 | 46 | 1013.7 |
| 20260502214122 | 22 | 51 | 4.8 | 12.9 | 0.00 | 0.00 | 0.00 | 39 | 1013.8 |
| 20260502213622 | 22 | 48 | 3.2 | 12.9 | 0.00 | 0.00 | 0.00 | 42 | 1013.8 |
| 20260502213122 | 22 | 49 | 3.2 | 11.3 | 0.00 | 0.00 | 0.00 | 42 | 1013.9 |
| 20260502212623 | 22 | 49 | 3.2 | 6.4 | 0.00 | 0.00 | 0.00 | 42 | 1014.0 |
| 20260502212122 | 23 | 49 | 1.6 | 6.4 | 0.00 | 0.00 | 0.00 | 42 | 1014.0 |
| 20260502211622 | 23 | 48 | 1.6 | 6.4 | 0.00 | 0.00 | 0.00 | 40 | 1014.0 |
| 20260502211122 | 23 | 48 | 3.2 | 6.4 | 0.00 | 0.00 | 0.00 | 43 | 1014.1 |
| 20260502210622 | 23 | 48 | 4.8 | 8.0 | 0.00 | 0.00 | 0.00 | 42 | 1014.1 |
| 20260502210122 | 22 | 49 | 3.2 | 11.3 | 0.00 | 0.00 | 0.00 | 38 | 1014.1 |
| 20260502205622 | 22 | 51 | 4.8 | 11.3 | 0.00 | 0.00 | 0.00 | 40 | 1014.1 |
| 20260502205122 | 22 | 51 | 3.2 | 6.4 | 0.00 | 0.00 | 0.00 | 47 | 1014.2 |
| 20260502204622 | 22 | 52 | 1.6 | 6.4 | 0.00 | 0.00 | 0.00 | 40 | 1014.2 |
| 20260502204122 | 22 | 53 | 3.2 | 11.3 | 0.00 | 0.00 | 0.00 | 40 | 1014.3 |
| 20260502203624 | 22 | 54 | 6.4 | 11.3 | 0.00 | 0.00 | 0.00 | 46 | 1014.4 |
| 20260502203122 | 22 | 54 | 4.8 | 11.3 | 0.00 | 0.00 | 0.00 | 46 | 1014.4 |
| 20260502202622 | 22 | 50 | 4.8 | 11.3 | 0.00 | 0.00 | 0.00 | 46 | 1014.6 |
| 20260502202122 | 22 | 51 | 6.4 | 11.3 | 0.00 | 0.00 | 0.00 | 44 | 1014.6 |
| 20260502201622 | 22 | 49 | 6.4 | 11.3 | 0.00 | 0.00 | 0.00 | 45 | 1014.6 |
| 20260502201123 | 22 | 49 | 3.2 | 6.4 | 0.00 | 0.00 | 0.00 | 49 | 1014.8 |
| 20260502200622 | 21 | 50 | 3.2 | 6.4 | 0.00 | 0.00 | 0.00 | 50 | 1014.9 |
| 20260502200122 | 21 | 49 | 3.2 | 8.0 | 0.00 | 0.00 | 0.00 | 43 | 1014.9 |
| 20260502195622 | 21 | 48 | 1.6 | 6.4 | 0.00 | 0.00 | 0.00 | 48 | 1014.9 |
| 20260502195122 | 21 | 48 | 4.8 | 12.9 | 0.00 | 0.00 | 0.00 | 44 | 1015.0 |
| 20260502194623 | 21 | 25 | 3.2 | 11.3 | 0.00 | 0.00 | 0.00 | 44 | 1015.1 |
| 20260502194122 | 21 | 44 | 4.8 | 17.7 | 0.00 | 0.00 | 0.00 | 52 | 1015.2 |
| 20260502193622 | 21 | 47 | 3.2 | 12.9 | 0.00 | 0.00 | 0.00 | 47 | 1015.2 |
| 20260502193122 | 20 | 51 | 4.8 | 11.3 | 0.00 | 0.00 | 0.00 | 47 | 1015.2 |
| 20260502192622 | 20 | 53 | 3.2 | 8.0 | 0.00 | 0.00 | 0.00 | 51 | 1015.4 |
| 20260502192122 | 20 | 56 | 4.8 | 11.3 | 0.00 | 0.00 | 0.00 | 48 | 1015.6 |
| 20260502191622 | 20 | 55 | 4.8 | 12.9 | 0.00 | 0.00 | 0.00 | 45 | 1015.8 |
| 20260502191122 | 20 | 44 | 4.8 | 11.3 | 0.00 | 0.00 | 0.00 | 49 | 1015.9 |
| 20260502190622 | 20 | 41 | 3.2 | 9.7 | 0.00 | 0.00 | 0.00 | 51 | 1015.9 |
| 20260502190122 | 19 | 41 | 4.8 | 14.5 | 0.00 | 0.00 | 0.00 | 52 | 1015.9 |
| 20260502185622 | 19 | 46 | 3.2 | 12.9 | 0.00 | 0.00 | 0.00 | 47 | 1016.0 |
| 20260502185122 | 19 | 52 | 4.8 | 12.9 | 0.00 | 0.00 | 0.00 | 46 | 1016.0 |
| 20260502184622 | 19 | 54 | 6.4 | 16.1 | 0.00 | 0.00 | 0.00 | 52 | 1016.1 |
| 20260502184122 | 19 | 56 | 4.8 | 14.5 | 0.00 | 0.00 | 0.00 | 47 | 1016.1 |
| 20260502183622 | 18 | 54 | 4.8 | 11.3 | 0.00 | 0.00 | 0.00 | 52 | 1016.2 |
| 20260502183122 | 18 | 58 | 4.8 | 8.0 | 0.00 | 0.00 | 0.00 | 51 | 1016.3 |
| 20260502182622 | 18 | 58 | 4.8 | 12.9 | 0.00 | 0.00 | 0.00 | 52 | 1016.4 |
| 20260502182122 | 18 | 26 | 4.8 | 12.9 | 0.00 | 0.00 | 0.00 | 51 | 1016.5 |
| 20260502181622 | 18 | 46 | 3.2 | 11.3 | 0.00 | 0.00 | 0.00 | 53 | 1016.5 |
| 20260502181122 | 18 | 47 | 4.8 | 14.5 | 0.00 | 0.00 | 0.00 | 50 | 1016.7 |
| 20260502180622 | 17 | 50 | 4.8 | 12.9 | 0.00 | 0.00 | 0.00 | 54 | 1016.8 |
| 20260502180122 | 17 | 359 | 1.6 | 6.4 | 0.00 | 0.00 | 0.00 | 55 | 1016.8 |
| 20260502170122 | 16 | 22 | 3.2 | 11.3 | 0.00 | 0.00 | 0.00 | 57 | 1017.3 |
| 20260502164122 | 15 | 19 | 3.2 | 9.7 | 0.00 | 0.00 | 0.00 | 58 | 1017.5 |
| 20260502163622 | 15 | 52 | 4.8 | 16.1 | 0.00 | 0.00 | 0.00 | 57 | 1017.5 |
| 20260502163122 | 15 | 57 | 4.8 | 14.5 | 0.00 | 0.00 | 0.00 | 58 | 1017.5 |
| 20260502162622 | 14 | 49 | 6.4 | 16.1 | 0.00 | 0.00 | 0.00 | 58 | 1017.6 |
| 20260502162122 | 14 | 52 | 6.4 | 17.7 | 0.00 | 0.00 | 0.00 | 56 | 1017.6 |
| 20260502161622 | 15 | 51 | 3.2 | 12.9 | 0.00 | 0.00 | 0.00 | 62 | 1017.6 |
| 20260502161122 | 14 | 58 | 4.8 | 12.9 | 0.00 | 0.00 | 0.00 | 60 | 1017.7 |
| 20260502160622 | 14 | 54 | 1.6 | 8.0 | 0.00 | 0.00 | 0.00 | 63 | 1017.7 |
| 20260502160122 | 14 | 15 | 0.0 | 4.8 | 0.00 | 0.00 | 0.00 | 61 | 1017.7 |
| 20260502152122 | 11 | 359 | 0.0 | 4.8 | 0.00 | 0.00 | 0.00 | 74 | 1017.8 |
| 20260502151622 | 11 | 8 | 1.6 | 4.8 | 0.00 | 0.00 | 0.00 | 74 | 1017.8 |
| 20260502151122 | 11 | 48 | 0.0 | 0.0 | 0.00 | 0.00 | 0.00 | 74 | 1017.8 |
| 20260502150622 | 11 | 48 | 0.0 | 3.2 | 0.00 | 0.00 | 0.00 | 74 | 1017.8 |
| 20260502150122 | 10 | 48 | 0.0 | 3.2 | 0.00 | 0.00 | 0.00 | 76 | 1017.8 |
| 20260502140122 | 7 | 129 | 0.0 | 0.0 | 0.00 | 0.00 | 0.00 | 85 | 1017.8 |
| 20260502130622 | 6 | 129 | 0.0 | 0.0 | 0.00 | 0.00 | 0.00 | 84 | 1017.4 |
| 20260502130122 | 6 | 129 | 0.0 | 0.0 | 0.00 | 0.00 | 0.00 | 84 | 1017.4 |
| 20260502123622 | 6 | 129 | 0.0 | 0.0 | 0.00 | 0.00 | 0.00 | 81 | 1017.1 |
| 20260502123122 | 6 | 129 | 0.0 | 0.0 | 0.00 | 0.00 | 0.00 | 81 | 1017.1 |
| 20260502122622 | 6 | 129 | 0.0 | 0.0 | 0.00 | 0.00 | 0.00 | 81 | 1017.1 |
| 20260502122122 | 6 | 129 | 0.0 | 0.0 | 0.00 | 0.00 | 0.00 | 82 | 1017.0 |
| 20260502121622 | 6 | 129 | 0.0 | 0.0 | 0.00 | 0.00 | 0.00 | 81 | 1017.0 |
| 20260502121122 | 6 | 129 | 0.0 | 0.0 | 0.00 | 0.00 | 0.00 | 81 | 1016.9 |
| 20260502120622 | 6 | 129 | 0.0 | 0.0 | 0.00 | 0.00 | 0.00 | 81 | 1017.0 |
| 20260502120122 | 6 | 129 | 0.0 | 0.0 | 0.00 | 0.00 | 0.00 | 81 | 1017.0 |
| 20260502115622 | 6 | 129 | 0.0 | 0.0 | 0.00 | 0.00 | 0.00 | 81 | 1017.0 |
| 20260502115122 | 6 | 129 | 0.0 | 0.0 | 0.00 | 0.00 | 0.00 | 81 | 1016.9 |
| 20260502114622 | 6 | 129 | 0.0 | 0.0 | 0.00 | 0.00 | 0.00 | 81 | 1017.1 |
| 20260502114122 | 6 | 129 | 0.0 | 0.0 | 0.00 | 0.00 | 0.00 | 81 | 1017.1 |
| 20260502113622 | 6 | 129 | 0.0 | 0.0 | 0.00 | 0.00 | 0.00 | 80 | 1017.1 |
| 20260502113122 | 6 | 129 | 0.0 | 0.0 | 0.00 | 0.00 | 0.00 | 80 | 1017.1 |
| 20260502112622 | 6 | 129 | 0.0 | 0.0 | 0.00 | 0.00 | 0.00 | 80 | 1017.0 |
| 20260502112122 | 6 | 129 | 0.0 | 0.0 | 0.00 | 0.00 | 0.00 | 79 | 1017.0 |
| 20260502111622 | 7 | 129 | 0.0 | 0.0 | 0.00 | 0.00 | 0.00 | 78 | 1016.9 |
| 20260502111122 | 7 | 129 | 0.0 | 0.0 | 0.00 | 0.00 | 0.00 | 78 | 1017.0 |
| 20260502110622 | 7 | 129 | 0.0 | 0.0 | 0.00 | 0.00 | 0.00 | 77 | 1016.9 |
| 20260502110122 | 7 | 129 | 0.0 | 0.0 | 0.00 | 0.00 | 0.00 | 76 | 1017.0 |
| 20260502105622 | 7 | 129 | 0.0 | 0.0 | 0.00 | 0.00 | 0.00 | 77 | 1017.0 |
| 20260502105122 | 7 | 129 | 0.0 | 0.0 | 0.00 | 0.00 | 0.00 | 77 | 1017.0 |
| 20260502104622 | 7 | 129 | 0.0 | 0.0 | 0.00 | 0.00 | 0.00 | 77 | 1017.0 |
| 20260502104122 | 7 | 129 | 0.0 | 0.0 | 0.00 | 0.00 | 0.00 | 78 | 1017.0 |
| 20260502103622 | 7 | 129 | 0.0 | 0.0 | 0.00 | 0.00 | 0.00 | 78 | 1017.0 |
| 20260502103122 | 7 | 129 | 0.0 | 0.0 | 0.00 | 0.00 | 0.00 | 77 | 1017.0 |
| 20260502102622 | 7 | 129 | 0.0 | 0.0 | 0.00 | 0.00 | 0.00 | 77 | 1017.0 |
| 20260502102122 | 7 | 129 | 0.0 | 0.0 | 0.00 | 0.00 | 0.00 | 77 | 1017.0 |
| 20260502101622 | 7 | 129 | 0.0 | 0.0 | 0.00 | 0.00 | 0.00 | 77 | 1016.9 |
| 20260502101122 | 7 | 129 | 0.0 | 0.0 | 0.00 | 0.00 | 0.00 | 78 | 1016.8 |
| 20260502100623 | 7 | 129 | 0.0 | 0.0 | 0.00 | 0.00 | 0.00 | 77 | 1016.7 |
| 20260502100122 | 7 | 129 | 0.0 | 0.0 | 0.00 | 0.00 | 0.00 | 76 | 1016.8 |
| 20260502091122 | 8 | 125 | 0.0 | 0.0 | 0.00 | 0.00 | 0.00 | 74 | 1016.6 |
| 20260502090622 | 8 | 125 | 0.0 | 0.0 | 0.00 | 0.00 | 0.00 | 75 | 1016.6 |
| 20260502090122 | 8 | 125 | 0.0 | 0.0 | 0.00 | 0.00 | 0.00 | 74 | 1016.5 |